Los Angeles International Airport
KLAX : now visible

Airfield :











YOU CAN JOIN US ON...

 
LOGIN :

Register | Disclaimer

   EN    FR    IT 

 









Legend :    VFR   Marginal VFR   IFR   Intensive IFR   Very Intensive IFR
Visi :
Ceiling :
>= 8 km
>= 3000ft
5 to 8 km
1000 to 3000 ft
1500m to 5 km
500 to 1000 ft
800 to 1500m
200 to 500 ft
< 800m
< 200 ft
Symbols :   Thunderstorms  Fog  Heavy snow  Heavy precipitations  Wind > 20 kt






- Airport Elevation : 125 ft
- IATA code : LAX


KLAX - Los Angeles International

CURRENT METAR :
  • 050253Z 27007KT 10SM BKN200 BKN250 17/13 A3009 RMK AO2 SLP190 T01670128 53009

EXPIRED METARs :
  • 050153Z 26007KT 10SM FEW150 FEW250 17/13 A3008 RMK AO2 SLP187 T01670128
  • 050053Z 26007KT 10SM FEW150 FEW250 17/11 A3007 RMK AO2 SLP183 T01720111
  • 042353Z 26007KT 10SM FEW150 FEW200 SCT250 18/11 A3006 RMK AO2 SLP181 T01830111 10222 20183 55002
  • 042253Z 27010KT 10SM FEW200 FEW250 18/13 A3006 RMK AO2 SLP180 T01830128

TAF KLAX
Valid from the 05 at 00:00 until the 06 at 06:00 UTC


042341Z 0500/0606 27010KT P6SM SKC
FM050400 VRB03KT P6SM SKC
FM052100 27010KT P6SM SKC
FM060400 VRB03KT P6SM SKC
KZLA FIR / North America



MET'MAP, your aeronautical weather chart ! - Copyright ORBIFLY December 2007 - Disclaimer

ORBIFLY MET'MAP TEAM :

Programming & Development : Alexandra Zaïnal
Original concept : Baudouin d'Aumeries
Technical & hardware support : Manuel Goepfert
Assistance : Marc-Olivier Méhu




SOURCES & CREDITS :

   NOAA       Earth
Advisory